Time;durP1;ratioP1;P1;durP2;ratioP2;P2;SDS_P1;SDS_P2;PMS_P1;PMS_P2;Temp;Humidity;BMP_temperature;BMP_pressure;BME280_temperature;BME280_humidity;BME280_pressure;Samples;Min_cycle;Max_cycle;Signal;HPM_P1;HPM_P2
2024/01/07 00:01:15;;;;;;;30.77;19.70;;;2.80;99.90;;;;;;5094215;28;20232;-78
2024/01/07 00:03:42;;;;;;;30.53;19.43;;;2.90;99.90;;;;;;5093871;28;20198;-79
2024/01/07 00:06:08;;;;;;;31.70;20.33;;;2.90;99.90;;;;;;5088972;28;20213;-79
2024/01/07 00:08:34;;;;;;;30.00;20.13;;;2.90;99.90;;;;;;5092665;28;20615;-79
2024/01/07 00:11:00;;;;;;;27.93;19.50;;;2.90;99.90;;;;;;5094366;28;20198;-79
2024/01/07 00:13:25;;;;;;;30.53;20.40;;;2.90;99.90;;;;;;5093802;28;20170;-79
2024/01/07 00:15:53;;;;;;;29.03;19.83;;;2.90;99.90;;;;;;5093948;28;20290;-78
2024/01/07 00:18:19;;;;;;;28.83;18.70;;;2.80;99.90;;;;;;5093603;28;20174;-79
2024/01/07 00:20:44;;;;;;;28.63;19.73;;;2.80;99.90;;;;;;5094090;28;20198;-78
2024/01/07 00:23:10;;;;;;;27.73;18.87;;;2.90;99.90;;;;;;5093475;28;20606;-78
2024/01/07 00:25:36;;;;;;;30.90;19.53;;;2.90;99.90;;;;;;5091356;28;20722;-79
2024/01/07 00:28:01;;;;;;;30.27;20.17;;;2.90;99.90;;;;;;5093758;28;20174;-78
2024/01/07 00:30:27;;;;;;;27.77;19.00;;;2.90;99.90;;;;;;5092286;28;20201;-79
2024/01/07 00:32:52;;;;;;;29.87;20.47;;;2.90;99.90;;;;;;5093805;28;20186;-78
2024/01/07 00:35:18;;;;;;;29.70;19.57;;;2.90;99.90;;;;;;5093187;28;20201;-78
2024/01/07 00:37:44;;;;;;;32.07;20.57;;;2.90;99.90;;;;;;5092718;28;20186;-78
2024/01/07 00:40:10;;;;;;;32.20;19.67;;;2.80;99.90;;;;;;5093682;28;20656;-79
2024/01/07 00:42:35;;;;;;;32.53;19.80;;;2.80;99.90;;;;;;5093265;28;20212;-78
2024/01/07 00:45:01;;;;;;;26.20;18.47;;;2.80;99.90;;;;;;5093359;28;20198;-78
2024/01/07 00:47:27;;;;;;;26.43;18.10;;;2.80;99.90;;;;;;5098781;28;20199;-80
2024/01/07 00:49:52;;;;;;;28.13;19.10;;;2.80;99.90;;;;;;5098154;28;20547;-79
2024/01/07 00:52:18;;;;;;;25.43;18.23;;;2.80;99.90;;;;;;5101610;28;20177;-78
2024/01/07 00:54:43;;;;;;;26.50;18.40;;;2.80;99.90;;;;;;5102848;28;20799;-77
2024/01/07 00:57:11;;;;;;;26.23;18.23;;;2.80;99.90;;;;;;5103847;28;20178;-79
2024/01/07 00:59:37;;;;;;;23.50;17.60;;;2.80;99.90;;;;;;5103385;28;20182;-78
2024/01/07 01:02:02;;;;;;;30.40;18.70;;;2.80;99.90;;;;;;5101696;28;20183;-79
2024/01/07 01:04:28;;;;;;;26.83;18.63;;;2.80;99.90;;;;;;5097111;28;20202;-79
2024/01/07 01:06:53;;;;;;;26.90;18.90;;;2.90;99.90;;;;;;5096538;28;20182;-79
2024/01/07 01:09:19;;;;;;;26.50;18.47;;;2.80;99.90;;;;;;5101639;28;20222;-79
2024/01/07 01:11:44;;;;;;;26.20;18.77;;;2.80;99.90;;;;;;5099733;28;20223;-79
2024/01/07 01:14:10;;;;;;;28.13;20.00;;;2.80;99.90;;;;;;5098420;28;20223;-79
2024/01/07 01:16:36;;;;;;;27.67;18.93;;;2.80;99.90;;;;;;5105622;28;20226;-79
2024/01/07 01:19:01;;;;;;;27.60;18.20;;;2.90;99.90;;;;;;5118909;28;20182;-79
2024/01/07 01:21:27;;;;;;;26.40;18.97;;;2.80;99.90;;;;;;5117904;28;20391;-78
2024/01/07 01:23:52;;;;;;;25.50;17.53;;;2.80;99.90;;;;;;5118126;28;20243;-79
2024/01/07 01:26:18;;;;;;;25.93;17.80;;;2.80;99.90;;;;;;5113071;28;20347;-78
2024/01/07 01:28:43;;;;;;;21.30;16.17;;;2.80;99.90;;;;;;5098834;28;20196;-79
2024/01/07 01:31:13;;;;;;;23.47;16.60;;;2.80;99.90;;;;;;5097904;28;20179;-79
2024/01/07 01:33:39;;;;;;;21.67;14.27;;;2.80;99.90;;;;;;5096610;28;20214;-78
2024/01/07 01:36:05;;;;;;;21.40;15.93;;;2.70;99.90;;;;;;5097532;28;20201;-78
2024/01/07 01:38:31;;;;;;;18.97;15.23;;;2.80;99.90;;;;;;5096561;28;20250;-79
2024/01/07 01:40:56;;;;;;;21.40;15.00;;;2.70;99.90;;;;;;5098162;28;20181;-78
2024/01/07 01:43:26;;;;;;;20.73;14.47;;;2.80;99.90;;;;;;5095697;28;20182;-79
2024/01/07 01:45:53;;;;;;;19.07;14.47;;;2.80;99.90;;;;;;5095424;28;20214;-78
2024/01/07 01:48:19;;;;;;;18.67;14.37;;;2.70;99.90;;;;;;5096888;28;20174;-79
2024/01/07 01:50:46;;;;;;;20.80;14.73;;;2.70;99.90;;;;;;5096679;28;20181;-79
2024/01/07 01:53:12;;;;;;;19.97;13.77;;;2.70;99.90;;;;;;5096199;28;20185;-79
2024/01/07 01:55:37;;;;;;;19.23;13.93;;;2.70;99.90;;;;;;5108779;28;20261;-78
2024/01/07 01:58:04;;;;;;;19.30;13.90;;;2.70;99.90;;;;;;5116064;28;20173;-79
2024/01/07 02:00:32;;;;;;;18.47;13.70;;;2.70;99.90;;;;;;5115286;28;20181;-78
2024/01/07 02:03:00;;;;;;;19.50;13.57;;;2.70;99.90;;;;;;5112688;28;20185;-79
2024/01/07 02:05:26;;;;;;;17.53;13.43;;;2.70;99.90;;;;;;5093934;28;20214;-79
2024/01/07 02:07:52;;;;;;;17.87;13.47;;;2.70;99.90;;;;;;5094887;28;20224;-79
2024/01/07 02:10:17;;;;;;;21.13;15.27;;;2.70;99.90;;;;;;5096213;28;20304;-79
2024/01/07 02:12:43;;;;;;;22.20;15.27;;;2.70;99.90;;;;;;5094542;28;20695;-79
2024/01/07 02:15:09;;;;;;;23.73;15.03;;;2.60;99.90;;;;;;5095699;28;20289;-79
2024/01/07 02:17:34;;;;;;;20.13;15.43;;;2.60;99.90;;;;;;5095879;28;20181;-79
2024/01/07 02:20:00;;;;;;;19.50;15.37;;;2.70;99.90;;;;;;5100467;28;20184;-79
2024/01/07 02:22:25;;;;;;;22.30;16.03;;;2.60;99.90;;;;;;5107262;28;20270;-78
2024/01/07 02:24:51;;;;;;;25.87;17.50;;;2.60;99.90;;;;;;5094979;28;20217;-79
2024/01/07 02:27:17;;;;;;;21.33;15.40;;;2.70;99.90;;;;;;5094580;28;20178;-78
2024/01/07 02:29:42;;;;;;;24.53;16.67;;;2.70;99.90;;;;;;5096201;28;20239;-78
2024/01/07 02:32:08;;;;;;;23.13;16.30;;;2.70;99.90;;;;;;5095703;28;20178;-79
2024/01/07 02:34:33;;;;;;;27.60;18.03;;;2.70;99.90;;;;;;5093649;28;20255;-79
2024/01/07 02:36:58;;;;;;;27.63;17.53;;;2.70;99.90;;;;;;5095604;28;20181;-79
2024/01/07 02:39:24;;;;;;;23.30;16.40;;;2.60;99.90;;;;;;5095685;28;20178;-79
2024/01/07 02:41:50;;;;;;;27.97;17.17;;;2.60;99.90;;;;;;5095182;28;20178;-79
2024/01/07 02:44:16;;;;;;;24.63;16.43;;;2.60;99.90;;;;;;5095636;28;20222;-79
2024/01/07 02:46:41;;;;;;;29.17;17.53;;;2.50;99.90;;;;;;5103524;28;20178;-78
2024/01/07 02:49:07;;;;;;;25.00;16.23;;;2.50;99.90;;;;;;5109560;28;20666;-79
2024/01/07 02:51:32;;;;;;;26.90;16.53;;;2.50;99.90;;;;;;5097749;28;20201;-79
2024/01/07 02:53:58;;;;;;;26.30;16.33;;;2.50;99.90;;;;;;5094656;28;20550;-79
2024/01/07 02:56:23;;;;;;;23.13;15.53;;;2.50;99.90;;;;;;5093908;28;20274;-79
2024/01/07 02:58:49;;;;;;;22.93;15.70;;;2.50;99.90;;;;;;5095252;28;20208;-79
2024/01/07 03:01:14;;;;;;;26.53;17.67;;;2.50;99.90;;;;;;5095417;28;20600;-79
2024/01/07 03:03:40;;;;;;;24.03;15.77;;;2.50;99.90;;;;;;5095423;28;20172;-79
2024/01/07 03:06:05;;;;;;;24.27;16.43;;;2.50;99.90;;;;;;5093558;28;20206;-79
2024/01/07 03:08:31;;;;;;;25.30;16.63;;;2.50;99.90;;;;;;5086007;28;20175;-78
2024/01/07 03:10:57;;;;;;;24.17;16.23;;;2.50;99.90;;;;;;5073071;28;20187;-79
2024/01/07 03:13:22;;;;;;;22.80;15.83;;;2.50;99.90;;;;;;5074746;28;20167;-78
2024/01/07 03:15:48;;;;;;;22.93;15.63;;;2.50;99.90;;;;;;5073542;28;20201;-79
2024/01/07 03:18:13;;;;;;;22.53;16.73;;;2.50;99.90;;;;;;5080553;28;20658;-78
2024/01/07 03:20:39;;;;;;;26.00;16.47;;;2.50;99.90;;;;;;5093713;28;20660;-78
2024/01/07 03:23:04;;;;;;;25.17;17.00;;;2.50;99.90;;;;;;5094777;28;20174;-79
2024/01/07 03:25:30;;;;;;;26.87;17.67;;;2.50;99.90;;;;;;5092809;28;20216;-78
2024/01/07 03:27:55;;;;;;;24.77;17.10;;;2.50;99.90;;;;;;5092875;28;20185;-79
2024/01/07 03:30:21;;;;;;;26.73;17.80;;;2.50;99.90;;;;;;5093577;28;20495;-79
2024/01/07 03:32:46;;;;;;;26.07;16.87;;;2.50;99.90;;;;;;5095033;28;20629;-79
2024/01/07 03:35:12;;;;;;;23.10;15.87;;;2.50;99.90;;;;;;5093053;28;20198;-79
2024/01/07 03:37:37;;;;;;;21.47;15.20;;;2.50;99.90;;;;;;5094352;28;20240;-78
2024/01/07 03:40:03;;;;;;;21.93;15.17;;;2.40;99.90;;;;;;5094569;28;20186;-78
2024/01/07 03:42:29;;;;;;;20.43;14.53;;;2.40;99.90;;;;;;5094493;28;20209;-79
2024/01/07 03:44:54;;;;;;;21.97;14.73;;;2.40;99.90;;;;;;5094478;28;20233;-79
2024/01/07 03:47:20;;;;;;;22.50;14.53;;;2.40;99.90;;;;;;5094653;28;20283;-79
2024/01/07 03:49:46;;;;;;;19.27;13.53;;;2.40;99.90;;;;;;5094119;28;20213;-79
2024/01/07 03:52:11;;;;;;;20.30;14.83;;;2.40;99.90;;;;;;5092537;28;20174;-79
2024/01/07 03:54:37;;;;;;;20.37;15.30;;;2.40;99.90;;;;;;5094235;28;20556;-79
2024/01/07 03:57:02;;;;;;;21.03;14.17;;;2.30;99.90;;;;;;5092920;28;20174;-79
2024/01/07 03:59:28;;;;;;;20.20;15.57;;;2.30;99.90;;;;;;5093789;28;20194;-78
2024/01/07 04:01:55;;;;;;;21.37;15.17;;;2.30;99.90;;;;;;5095330;28;20178;-80
2024/01/07 04:04:21;;;;;;;20.70;16.20;;;2.30;99.90;;;;;;5096940;28;20209;-79
2024/01/07 04:06:46;;;;;;;21.93;15.03;;;2.20;99.90;;;;;;5098344;28;20257;-79
2024/01/07 04:09:12;;;;;;;19.90;15.03;;;2.30;99.90;;;;;;5109438;28;20260;-79
2024/01/07 04:11:41;;;;;;;22.17;15.10;;;2.30;99.90;;;;;;5117363;28;20280;-79
2024/01/07 04:14:07;;;;;;;21.43;14.53;;;2.30;99.90;;;;;;5116938;28;20215;-79
2024/01/07 04:16:33;;;;;;;22.73;14.90;;;2.30;99.90;;;;;;5115131;28;20209;-79
2024/01/07 04:18:58;;;;;;;20.93;14.43;;;2.30;99.90;;;;;;5093921;28;20183;-79
2024/01/07 04:21:24;;;;;;;20.47;14.87;;;2.30;99.90;;;;;;5109507;28;20197;-79
2024/01/07 04:23:49;;;;;;;20.80;14.87;;;2.40;99.90;;;;;;5119757;28;20231;-79
2024/01/07 04:26:15;;;;;;;20.50;14.77;;;2.40;99.90;;;;;;5119534;28;20229;-79
2024/01/07 04:28:42;;;;;;;20.63;14.83;;;2.30;99.90;;;;;;5102377;28;20218;-79
2024/01/07 04:31:07;;;;;;;20.50;15.27;;;2.40;99.90;;;;;;5077884;28;20163;-79
2024/01/07 04:33:33;;;;;;;20.30;15.40;;;2.40;99.90;;;;;;5078076;28;20194;-79
2024/01/07 04:36:00;;;;;;;18.37;14.03;;;2.30;99.90;;;;;;5077734;28;20206;-79
2024/01/07 04:38:26;;;;;;;20.93;14.73;;;2.30;99.90;;;;;;5083042;28;20174;-79
2024/01/07 04:40:52;;;;;;;20.13;14.20;;;2.30;99.90;;;;;;5098562;28;20185;-79
2024/01/07 04:43:18;;;;;;;17.37;13.20;;;2.30;99.90;;;;;;5096922;28;20703;-79
2024/01/07 04:45:44;;;;;;;18.03;13.37;;;2.30;99.90;;;;;;5096611;28;20607;-79
2024/01/07 04:48:10;;;;;;;18.00;14.23;;;2.30;99.90;;;;;;5096691;28;20257;-79
2024/01/07 04:50:36;;;;;;;16.33;13.63;;;2.30;99.90;;;;;;5097739;28;20251;-79
2024/01/07 04:53:01;;;;;;;18.13;13.83;;;2.20;99.90;;;;;;5098325;28;20648;-79
2024/01/07 04:55:27;;;;;;;18.43;14.13;;;2.20;99.90;;;;;;5098279;28;20198;-80
2024/01/07 04:57:53;;;;;;;15.83;13.03;;;2.20;99.90;;;;;;5096399;28;20173;-80
2024/01/07 05:00:18;;;;;;;16.37;12.60;;;2.20;99.90;;;;;;5111542;28;20170;-79
2024/01/07 05:02:44;;;;;;;18.00;13.07;;;2.10;99.90;;;;;;5106019;28;20179;-79
2024/01/07 05:05:09;;;;;;;17.57;13.93;;;2.10;99.90;;;;;;5096257;28;20210;-79
2024/01/07 05:07:35;;;;;;;17.27;13.20;;;2.00;99.90;;;;;;5098012;28;20258;-79
2024/01/07 05:10:00;;;;;;;17.67;12.20;;;2.00;99.90;;;;;;5095478;28;20292;-79
2024/01/07 05:12:26;;;;;;;18.90;12.60;;;2.00;99.90;;;;;;5096851;28;20684;-78
2024/01/07 05:14:52;;;;;;;16.03;12.27;;;2.00;99.90;;;;;;5095459;28;20198;-78
2024/01/07 05:17:18;;;;;;;16.80;13.00;;;2.00;99.90;;;;;;5097029;28;20185;-79
2024/01/07 05:19:43;;;;;;;17.30;12.90;;;2.00;99.90;;;;;;5080904;28;20190;-78
2024/01/07 05:22:09;;;;;;;16.20;12.90;;;2.00;99.90;;;;;;5075869;28;20182;-79
2024/01/07 05:24:38;;;;;;;16.67;12.73;;;2.00;99.90;;;;;;5075196;28;20289;-78
2024/01/07 05:27:04;;;;;;;18.00;13.63;;;2.00;99.90;;;;;;5075693;28;20175;-79
2024/01/07 05:29:30;;;;;;;18.70;13.17;;;1.90;99.90;;;;;;5090201;28;20182;-79
2024/01/07 05:31:56;;;;;;;17.70;12.40;;;2.00;99.90;;;;;;5095179;28;20170;-79
2024/01/07 05:34:21;;;;;;;19.03;13.73;;;1.90;99.90;;;;;;5095879;28;20186;-79
2024/01/07 05:36:47;;;;;;;18.60;14.00;;;1.90;99.90;;;;;;5095268;28;20712;-79
2024/01/07 05:39:13;;;;;;;18.23;13.17;;;1.90;99.90;;;;;;5096107;28;20256;-79
2024/01/07 05:41:38;;;;;;;16.83;12.80;;;1.90;99.90;;;;;;5097403;28;20182;-79
2024/01/07 05:44:06;;;;;;;18.43;13.50;;;1.90;99.90;;;;;;5097437;28;20182;-79
2024/01/07 05:46:33;;;;;;;18.13;13.10;;;1.80;99.90;;;;;;5097042;28;20210;-79
2024/01/07 05:48:58;;;;;;;20.80;13.30;;;1.80;99.90;;;;;;5095673;28;20181;-79
2024/01/07 05:51:24;;;;;;;18.43;13.23;;;1.80;99.90;;;;;;5095706;28;20576;-79
2024/01/07 05:53:49;;;;;;;19.57;12.13;;;1.80;99.90;;;;;;5096637;28;20167;-78
2024/01/07 05:56:15;;;;;;;20.57;13.23;;;1.70;99.90;;;;;;5096081;28;20195;-79
2024/01/07 05:58:40;;;;;;;17.67;12.50;;;1.70;99.90;;;;;;5095857;28;20630;-79
2024/01/07 06:01:09;;;;;;;18.37;13.57;;;1.70;99.90;;;;;;5094648;28;20523;-79
2024/01/07 06:03:34;;;;;;;20.30;13.50;;;1.70;99.90;;;;;;5094896;28;20641;-78
2024/01/07 06:06:00;;;;;;;18.60;13.20;;;1.70;99.90;;;;;;5100523;28;20387;-79
2024/01/07 06:08:28;;;;;;;20.13;13.93;;;1.70;99.90;;;;;;5115191;28;20166;-78
2024/01/07 06:10:54;;;;;;;19.10;13.80;;;1.70;99.90;;;;;;5115077;28;20260;-79
2024/01/07 06:13:19;;;;;;;19.20;14.53;;;1.70;99.90;;;;;;5116170;28;20189;-79
2024/01/07 06:15:45;;;;;;;18.93;14.53;;;1.70;99.90;;;;;;5112161;28;20262;-78
2024/01/07 06:18:10;;;;;;;19.57;13.70;;;1.70;99.90;;;;;;5095666;28;20560;-78
2024/01/07 06:20:36;;;;;;;18.47;13.63;;;1.80;99.90;;;;;;5096050;28;20175;-79
2024/01/07 06:23:01;;;;;;;19.13;13.50;;;1.80;99.90;;;;;;5087796;28;20209;-78
2024/01/07 06:25:27;;;;;;;20.73;14.80;;;1.70;99.90;;;;;;5075186;28;20293;-78
2024/01/07 06:27:52;;;;;;;19.03;13.73;;;1.70;99.90;;;;;;5075211;28;20163;-78
2024/01/07 06:30:19;;;;;;;20.23;14.33;;;1.70;99.90;;;;;;5090867;28;20166;-79
2024/01/07 06:32:45;;;;;;;22.90;14.33;;;1.70;99.90;;;;;;5089235;28;20189;-78
2024/01/07 06:35:11;;;;;;;21.83;14.93;;;1.80;99.90;;;;;;5073622;28;20614;-78
2024/01/07 06:37:36;;;;;;;17.90;14.20;;;1.70;99.90;;;;;;5090682;28;20178;-78
2024/01/07 06:40:02;;;;;;;19.40;14.10;;;1.70;99.90;;;;;;5095497;28;20657;-78
2024/01/07 06:42:28;;;;;;;19.90;14.20;;;1.70;99.90;;;;;;5095610;28;20216;-79
2024/01/07 06:44:53;;;;;;;19.87;15.70;;;1.70;99.90;;;;;;5093263;28;20210;-79
2024/01/07 06:47:19;;;;;;;21.70;15.63;;;1.70;99.90;;;;;;5093610;28;20339;-79
2024/01/07 06:49:45;;;;;;;20.97;14.67;;;1.70;99.90;;;;;;5095392;28;20665;-78
2024/01/07 06:52:10;;;;;;;19.63;15.13;;;1.70;99.90;;;;;;5095080;28;20166;-79
2024/01/07 06:54:36;;;;;;;22.43;15.53;;;1.80;99.90;;;;;;5094817;28;20205;-79
2024/01/07 06:57:02;;;;;;;20.13;15.17;;;1.70;99.90;;;;;;5088670;28;20658;-79
2024/01/07 06:59:28;;;;;;;22.43;15.03;;;1.80;99.90;;;;;;5078488;28;20266;-78
2024/01/07 07:01:55;;;;;;;21.97;15.20;;;1.70;99.90;;;;;;5077493;28;20187;-79
2024/01/07 07:04:20;;;;;;;19.90;14.80;;;1.70;99.90;;;;;;5078852;28;20191;-79
2024/01/07 07:06:47;;;;;;;20.63;15.13;;;1.70;99.90;;;;;;5083734;28;20596;-79
2024/01/07 07:09:12;;;;;;;21.00;15.50;;;1.70;99.90;;;;;;5098659;28;20306;-78
2024/01/07 07:11:38;;;;;;;19.63;15.10;;;1.60;99.90;;;;;;5103683;28;20174;-78
2024/01/07 07:14:03;;;;;;;18.97;13.57;;;1.70;99.90;;;;;;5106773;28;20177;-79
2024/01/07 07:16:29;;;;;;;19.97;14.03;;;1.70;99.90;;;;;;5100613;28;20239;-79
2024/01/07 07:18:54;;;;;;;20.17;15.07;;;1.60;99.90;;;;;;5100536;28;20174;-77
2024/01/07 07:21:20;;;;;;;19.40;14.20;;;1.70;99.90;;;;;;5097171;28;20249;-79
2024/01/07 07:23:46;;;;;;;22.77;14.83;;;1.70;99.90;;;;;;5096519;28;20533;-79
2024/01/07 07:26:11;;;;;;;19.40;14.03;;;1.70;99.90;;;;;;5095731;28;20206;-79
2024/01/07 07:28:37;;;;;;;18.17;13.43;;;1.70;99.90;;;;;;5116533;28;20648;-79
2024/01/07 07:31:02;;;;;;;19.70;14.67;;;1.70;99.90;;;;;;5114633;28;20537;-78
2024/01/07 07:33:28;;;;;;;20.50;13.83;;;1.60;99.90;;;;;;5115881;28;20193;-79
2024/01/07 07:35:53;;;;;;;18.13;13.33;;;1.60;99.90;;;;;;5097358;28;20206;-79
2024/01/07 07:38:19;;;;;;;20.27;14.80;;;1.70;99.90;;;;;;5095112;28;20570;-78
2024/01/07 07:40:50;;;;;;;17.57;13.43;;;1.60;99.90;;;;;;5095525;28;20170;-78
2024/01/07 07:43:15;;;;;;;20.10;14.53;;;1.60;99.90;;;;;;5095275;28;20151;-78
2024/01/07 07:45:41;;;;;;;20.50;14.17;;;1.60;99.90;;;;;;5091406;28;20198;-78
2024/01/07 07:48:06;;;;;;;21.20;14.43;;;1.60;99.90;;;;;;5110347;28;20181;-78
2024/01/07 07:50:32;;;;;;;21.00;13.93;;;1.60;99.90;;;;;;5115296;28;20459;-79
2024/01/07 07:52:57;;;;;;;19.83;14.13;;;1.60;99.90;;;;;;5114673;28;20173;-78
2024/01/07 07:55:23;;;;;;;18.43;13.37;;;1.60;99.90;;;;;;5111579;28;20197;-79
2024/01/07 07:57:49;;;;;;;18.67;13.80;;;1.60;99.90;;;;;;5113937;28;20173;-77
2024/01/07 08:00:14;;;;;;;17.73;13.27;;;1.60;99.90;;;;;;5114436;28;20180;-79
2024/01/07 08:02:40;;;;;;;16.70;13.13;;;1.60;99.90;;;;;;5114236;28;20544;-78
2024/01/07 08:05:07;;;;;;;17.13;13.17;;;1.60;99.90;;;;;;5104190;28;20289;-78
2024/01/07 08:07:32;;;;;;;16.43;12.10;;;1.50;99.90;;;;;;5092298;28;20227;-78
2024/01/07 08:09:58;;;;;;;18.10;12.77;;;1.50;99.90;;;;;;5093498;28;20677;-78
2024/01/07 08:12:24;;;;;;;16.80;12.43;;;1.50;99.90;;;;;;5093984;28;20182;-79
2024/01/07 08:14:49;;;;;;;17.03;11.80;;;1.50;99.90;;;;;;5092087;28;20237;-78
2024/01/07 08:17:15;;;;;;;15.80;11.77;;;1.50;99.90;;;;;;5093855;28;20642;-78
2024/01/07 08:19:40;;;;;;;14.37;11.13;;;1.50;99.90;;;;;;5092961;28;20178;-78
2024/01/07 08:22:06;;;;;;;14.27;11.07;;;1.60;99.90;;;;;;5093688;28;20592;-78
2024/01/07 08:24:31;;;;;;;14.73;10.87;;;1.60;99.90;;;;;;5093076;28;20311;-78
2024/01/07 08:26:57;;;;;;;12.17;10.40;;;1.60;99.90;;;;;;5092431;28;20171;-78
2024/01/07 08:29:23;;;;;;;14.23;10.03;;;1.60;99.90;;;;;;5092319;28;20178;-78
2024/01/07 08:31:48;;;;;;;14.00;10.30;;;1.60;99.90;;;;;;5093696;28;20713;-79
2024/01/07 08:34:15;;;;;;;12.83;9.47;;;1.50;99.90;;;;;;5093461;28;20155;-78
2024/01/07 08:36:41;;;;;;;13.87;10.20;;;1.50;99.90;;;;;;5092892;28;20240;-78
2024/01/07 08:39:07;;;;;;;14.30;10.80;;;1.60;99.90;;;;;;5093433;28;20170;-78
2024/01/07 08:41:33;;;;;;;13.60;10.93;;;1.50;99.90;;;;;;5093966;28;20166;-79
2024/01/07 08:43:58;;;;;;;14.43;10.03;;;1.50;99.90;;;;;;5095359;28;20676;-78
2024/01/07 08:46:24;;;;;;;13.90;10.30;;;1.50;99.90;;;;;;5094645;28;20214;-79
2024/01/07 08:48:49;;;;;;;14.97;10.63;;;1.50;99.90;;;;;;5096103;28;20170;-79
2024/01/07 08:51:15;;;;;;;15.73;10.50;;;1.50;99.90;;;;;;5095965;28;20170;-79
2024/01/07 08:53:40;;;;;;;14.80;9.97;;;1.50;99.90;;;;;;5094050;28;20726;-79
2024/01/07 08:56:06;;;;;;;11.80;9.57;;;1.50;99.90;;;;;;5093796;28;20289;-79
2024/01/07 08:58:32;;;;;;;14.33;10.27;;;1.50;99.90;;;;;;5093337;28;20253;-78
2024/01/07 09:00:58;;;;;;;15.90;10.40;;;1.40;99.90;;;;;;5093656;28;20775;-79
2024/01/07 09:03:23;;;;;;;14.90;11.80;;;1.50;99.90;;;;;;5093690;28;20174;-78
2024/01/07 09:05:49;;;;;;;18.03;11.77;;;1.40;99.90;;;;;;5092354;28;20229;-79
2024/01/07 09:08:15;;;;;;;16.20;10.77;;;1.40;99.90;;;;;;5095126;28;20163;-79
2024/01/07 09:10:40;;;;;;;14.03;10.03;;;1.40;99.90;;;;;;5097133;28;20174;-78
2024/01/07 09:13:06;;;;;;;13.60;10.90;;;1.40;99.90;;;;;;5095662;28;20201;-78
2024/01/07 09:15:32;;;;;;;15.57;10.33;;;1.50;99.90;;;;;;5096189;28;20199;-79
2024/01/07 09:17:57;;;;;;;14.43;10.00;;;1.40;99.90;;;;;;5095372;28;20560;-78
2024/01/07 09:20:23;;;;;;;14.83;11.60;;;1.50;99.90;;;;;;5097157;28;20174;-79
2024/01/07 09:22:49;;;;;;;16.00;10.57;;;1.50;99.90;;;;;;5096283;28;20667;-79
2024/01/07 09:25:15;;;;;;;14.07;10.37;;;1.40;99.90;;;;;;5096669;28;20240;-79
2024/01/07 09:27:40;;;;;;;12.70;9.80;;;1.50;99.90;;;;;;5094968;28;20178;-78
2024/01/07 09:30:06;;;;;;;13.87;10.33;;;1.50;99.90;;;;;;5096634;28;20245;-79
2024/01/07 09:32:33;;;;;;;13.43;10.27;;;1.50;99.90;;;;;;5094877;28;20182;-78
2024/01/07 09:34:58;;;;;;;13.03;9.73;;;1.50;99.90;;;;;;5096099;28;20205;-78
2024/01/07 09:37:24;;;;;;;12.47;10.17;;;1.50;99.90;;;;;;5095582;28;20553;-78
2024/01/07 09:39:49;;;;;;;13.07;10.03;;;1.40;99.90;;;;;;5094346;28;20189;-78
2024/01/07 09:42:17;;;;;;;12.67;9.53;;;1.50;99.90;;;;;;5094963;28;20224;-79
2024/01/07 09:44:43;;;;;;;12.70;9.30;;;1.40;99.90;;;;;;5094421;28;20201;-78
2024/01/07 09:47:13;;;;;;;11.27;8.93;;;1.40;99.90;;;;;;5108836;28;20647;-79
2024/01/07 09:49:40;;;;;;;12.00;8.77;;;1.40;99.90;;;;;;5116636;28;20173;-78
2024/01/07 09:52:08;;;;;;;12.47;9.23;;;1.40;99.90;;;;;;5115079;28;20245;-78
2024/01/07 09:54:39;;;;;;;13.93;9.80;;;1.40;99.90;;;;;;5116099;28;20276;-78
2024/01/07 09:57:06;;;;;;;12.30;8.53;;;1.40;99.90;;;;;;5101640;28;20190;-79
2024/01/07 09:59:32;;;;;;;10.93;8.50;;;1.40;99.90;;;;;;5095069;28;20178;-79
2024/01/07 10:01:58;;;;;;;11.10;8.70;;;1.40;99.90;;;;;;5096019;28;20178;-79
2024/01/07 10:04:25;;;;;;;12.50;8.77;;;1.40;99.90;;;;;;5095789;28;20771;-78
2024/01/07 10:06:52;;;;;;;10.47;8.50;;;1.40;99.90;;;;;;5093975;28;20178;-78
2024/01/07 10:09:18;;;;;;;10.17;8.47;;;1.30;99.90;;;;;;5094605;28;20186;-78
2024/01/07 10:11:44;;;;;;;11.93;8.77;;;1.30;99.90;;;;;;5095735;28;20591;-78
2024/01/07 10:14:10;;;;;;;11.37;8.63;;;1.30;99.90;;;;;;5095268;28;20234;-78
2024/01/07 10:16:36;;;;;;;11.00;7.90;;;1.30;99.90;;;;;;5095685;28;20672;-79
2024/01/07 10:19:02;;;;;;;12.97;9.20;;;1.40;99.90;;;;;;5099476;28;20226;-79
2024/01/07 10:21:27;;;;;;;11.33;8.40;;;1.30;99.90;;;;;;5099340;28;20177;-79
2024/01/07 10:24:10;;;;;;;11.07;8.77;;;1.40;99.90;;;;;;5098377;28;20215;-79
2024/01/07 10:26:40;;;;;;;13.07;9.10;;;1.40;99.90;;;;;;5105025;28;20188;-79
2024/01/07 10:29:08;;;;;;;11.30;8.73;;;1.40;99.90;;;;;;5118201;28;20166;-79
2024/01/07 10:31:33;;;;;;;9.43;8.17;;;1.50;99.90;;;;;;5117922;28;20637;-79
2024/01/07 10:33:59;;;;;;;9.83;8.10;;;1.50;99.90;;;;;;5116045;28;20216;-79
2024/01/07 10:36:25;;;;;;;11.63;9.07;;;1.40;99.90;;;;;;5116721;28;20201;-79
2024/01/07 10:38:51;;;;;;;12.03;8.13;;;1.50;99.90;;;;;;5117107;28;20625;-79
2024/01/07 10:41:20;;;;;;;21.33;9.60;;;1.50;99.90;;;;;;5117138;28;20755;-79
2024/01/07 10:43:49;;;;;;;11.33;8.47;;;1.50;99.90;;;;;;5116688;28;20178;-79
2024/01/07 10:46:16;;;;;;;11.10;9.13;;;1.50;99.90;;;;;;5114978;28;20283;-79
2024/01/07 10:49:07;;;;;;;10.83;8.13;;;1.50;99.90;;;;;;5116427;28;20169;-79
2024/01/07 10:51:34;;;;;;;10.10;7.73;;;1.50;99.90;;;;;;5114656;28;20172;-79
2024/01/07 10:54:00;;;;;;;10.63;8.00;;;1.60;99.90;;;;;;5115640;28;20241;-78
2024/01/07 10:56:38;;;;;;;12.10;7.37;;;1.50;99.90;;;;;;5096841;28;20396;-78
2024/01/07 10:59:04;;;;;;;10.73;7.43;;;1.50;99.90;;;;;;5094923;28;20166;-78
2024/01/07 11:01:29;;;;;;;10.77;7.37;;;1.50;99.90;;;;;;5094627;28;20177;-78
2024/01/07 11:04:03;;;;;;;12.87;7.77;;;1.50;99.90;;;;;;5093818;28;20235;-78
2024/01/07 11:06:41;;;;;;;13.63;7.30;;;1.50;99.90;;;;;;5093132;28;20696;-79
2024/01/07 11:09:22;;;;;;;11.07;7.07;;;1.50;99.90;;;;;;5094848;28;20165;-77
2024/01/07 11:11:47;;;;;;;11.60;7.10;;;1.40;99.90;;;;;;5094917;28;20146;-78
2024/01/07 11:14:36;;;;;;;11.50;7.17;;;1.40;99.90;;;;;;5095951;28;20193;-78
2024/01/07 11:17:02;;;;;;;8.83;6.67;;;1.40;99.90;;;;;;5073569;28;20190;-78
2024/01/07 11:19:28;;;;;;;10.90;6.70;;;1.40;99.90;;;;;;5075459;28;20186;-79
2024/01/07 11:22:29;;;;;;;9.03;6.10;;;1.30;99.90;;;;;;5075111;28;20159;-79
2024/01/07 11:24:56;;;;;;;8.43;6.17;;;1.30;99.90;;;;;;5079660;28;20216;-79
2024/01/07 11:27:23;;;;;;;10.83;6.93;;;1.30;99.90;;;;;;5113316;28;20641;-79
2024/01/07 11:30:04;;;;;;;8.40;6.97;;;1.30;99.90;;;;;;5115456;28;20656;-78
2024/01/07 11:32:30;;;;;;;7.90;6.30;;;1.40;99.90;;;;;;5093734;28;20181;-78
2024/01/07 11:34:59;;;;;;;6.07;5.17;;;1.30;99.90;;;;;;5094092;28;20623;-78
2024/01/07 11:37:25;;;;;;;8.77;5.97;;;1.30;99.90;;;;;;5095588;28;20170;-77
2024/01/07 11:39:55;;;;;;;7.27;5.40;;;1.30;99.90;;;;;;5099560;28;20205;-79
2024/01/07 11:42:20;;;;;;;7.13;5.97;;;1.30;99.90;;;;;;5096029;28;20645;-79
2024/01/07 11:44:55;;;;;;;8.40;6.40;;;1.30;99.90;;;;;;5091769;28;20217;-78
2024/01/07 11:47:22;;;;;;;8.80;5.97;;;1.30;99.90;;;;;;5107024;28;20189;-79
2024/01/07 11:49:51;;;;;;;7.00;5.73;;;1.30;99.90;;;;;;5113835;28;20189;-79
2024/01/07 11:52:18;;;;;;;8.33;5.47;;;1.30;99.90;;;;;;5113824;28;20222;-79
2024/01/07 11:54:43;;;;;;;7.17;6.27;;;1.30;99.90;;;;;;5113892;28;20193;-78
2024/01/07 11:57:10;;;;;;;11.63;6.07;;;1.30;99.90;;;;;;5100047;28;20185;-79
2024/01/07 11:59:36;;;;;;;7.10;5.70;;;1.30;99.90;;;;;;5099609;28;20235;-78
2024/01/07 12:02:04;;;;;;;8.07;6.53;;;1.30;99.90;;;;;;5098608;28;20174;-79
2024/01/07 12:04:30;;;;;;;7.03;6.10;;;1.20;99.90;;;;;;5097956;28;20202;-80
2024/01/07 12:06:56;;;;;;;8.03;5.63;;;1.20;99.90;;;;;;5084911;28;20206;-79
2024/01/07 12:09:22;;;;;;;7.47;5.83;;;1.20;99.90;;;;;;5076348;28;20178;-79
2024/01/07 12:11:47;;;;;;;8.13;5.20;;;1.20;99.90;;;;;;5076057;28;20186;-79
2024/01/07 12:14:14;;;;;;;6.80;4.63;;;1.10;99.90;;;;;;5075187;28;20177;-79
2024/01/07 12:16:40;;;;;;;6.73;5.00;;;1.10;99.90;;;;;;5085900;28;20282;-81
2024/01/07 12:19:05;;;;;;;7.93;5.67;;;1.10;99.90;;;;;;5093841;28;20201;-80
2024/01/07 12:21:31;;;;;;;6.33;5.43;;;1.10;99.90;;;;;;5095068;28;20175;-80
2024/01/07 12:23:58;;;;;;;7.10;5.53;;;1.10;99.90;;;;;;5095339;28;20181;-80
2024/01/07 12:26:27;;;;;;;6.50;5.70;;;1.10;99.90;;;;;;5095310;28;20263;-79
2024/01/07 12:28:55;;;;;;;9.67;5.83;;;1.10;99.90;;;;;;5117359;28;20185;-80
2024/01/07 12:31:21;;;;;;;7.57;5.50;;;1.10;99.90;;;;;;5076838;28;20175;-80
2024/01/07 12:33:47;;;;;;;8.40;5.43;;;1.10;99.90;;;;;;5073904;28;20202;-80
2024/01/07 12:36:12;;;;;;;5.47;4.67;;;1.10;99.90;;;;;;5072812;28;20225;-78